sensor_id;sensor_type;location;lat;lon;timestamp;P1;durP1;ratioP1;P2;durP2;ratioP2
73699;SDS011;62005;50.082;8.988;2022-09-20T00:00:39;1.50;;;0.20;;
73699;SDS011;62005;50.082;8.988;2022-09-20T00:03:09;2.50;;;0.22;;
73699;SDS011;62005;50.082;8.988;2022-09-20T00:08:03;1.30;;;0.30;;
73699;SDS011;62005;50.082;8.988;2022-09-20T00:10:29;2.03;;;0.43;;
73699;SDS011;62005;50.082;8.988;2022-09-20T00:13:00;4.47;;;0.40;;
73699;SDS011;62005;50.082;8.988;2022-09-20T00:15:26;1.77;;;0.30;;
73699;SDS011;62005;50.082;8.988;2022-09-20T00:17:52;2.00;;;0.40;;
73699;SDS011;62005;50.082;8.988;2022-09-20T00:20:17;3.38;;;0.30;;
73699;SDS011;62005;50.082;8.988;2022-09-20T00:22:43;1.65;;;0.30;;
73699;SDS011;62005;50.082;8.988;2022-09-20T00:25:10;2.08;;;0.30;;
73699;SDS011;62005;50.082;8.988;2022-09-20T00:27:36;4.50;;;0.50;;
73699;SDS011;62005;50.082;8.988;2022-09-20T00:30:01;3.90;;;0.38;;
73699;SDS011;62005;50.082;8.988;2022-09-20T00:32:27;1.75;;;0.30;;
73699;SDS011;62005;50.082;8.988;2022-09-20T00:34:53;3.63;;;0.20;;
73699;SDS011;62005;50.082;8.988;2022-09-20T00:37:37;3.78;;;0.30;;
73699;SDS011;62005;50.082;8.988;2022-09-20T00:40:05;1.33;;;0.10;;
73699;SDS011;62005;50.082;8.988;2022-09-20T00:42:37;3.83;;;0.28;;
73699;SDS011;62005;50.082;8.988;2022-09-20T00:45:25;4.22;;;0.30;;
73699;SDS011;62005;50.082;8.988;2022-09-20T00:47:52;1.88;;;0.30;;
73699;SDS011;62005;50.082;8.988;2022-09-20T00:52:49;1.17;;;0.25;;
73699;SDS011;62005;50.082;8.988;2022-09-20T00:55:21;2.65;;;0.30;;
73699;SDS011;62005;50.082;8.988;2022-09-20T00:57:47;2.25;;;0.47;;
73699;SDS011;62005;50.082;8.988;2022-09-20T01:00:13;3.63;;;0.28;;
73699;SDS011;62005;50.082;8.988;2022-09-20T01:02:41;2.67;;;0.77;;
73699;SDS011;62005;50.082;8.988;2022-09-20T01:05:11;2.65;;;0.32;;
73699;SDS011;62005;50.082;8.988;2022-09-20T01:07:39;2.47;;;0.20;;
73699;SDS011;62005;50.082;8.988;2022-09-20T01:10:07;3.83;;;0.57;;
73699;SDS011;62005;50.082;8.988;2022-09-20T01:12:33;2.10;;;0.20;;
73699;SDS011;62005;50.082;8.988;2022-09-20T01:15:04;3.90;;;0.43;;
73699;SDS011;62005;50.082;8.988;2022-09-20T01:17:33;4.40;;;0.22;;
73699;SDS011;62005;50.082;8.988;2022-09-20T01:27:48;1.95;;;0.68;;
73699;SDS011;62005;50.082;8.988;2022-09-20T01:30:19;2.53;;;0.32;;
73699;SDS011;62005;50.082;8.988;2022-09-20T01:32:55;4.03;;;0.20;;
73699;SDS011;62005;50.082;8.988;2022-09-20T01:35:28;4.75;;;0.65;;
73699;SDS011;62005;50.082;8.988;2022-09-20T01:42:58;2.78;;;0.35;;
73699;SDS011;62005;50.082;8.988;2022-09-20T01:45:32;4.97;;;0.60;;
73699;SDS011;62005;50.082;8.988;2022-09-20T01:59:49;3.60;;;0.68;;
73699;SDS011;62005;50.082;8.988;2022-09-20T02:02:42;3.22;;;0.47;;
73699;SDS011;62005;50.082;8.988;2022-09-20T02:11:28;3.50;;;0.43;;
73699;SDS011;62005;50.082;8.988;2022-09-20T02:28:06;4.25;;;0.50;;
73699;SDS011;62005;50.082;8.988;2022-09-20T02:30:54;4.18;;;0.63;;
73699;SDS011;62005;50.082;8.988;2022-09-20T02:33:35;4.55;;;0.50;;
73699;SDS011;62005;50.082;8.988;2022-09-20T02:41:45;5.65;;;0.45;;
73699;SDS011;62005;50.082;8.988;2022-09-20T02:49:58;4.15;;;0.50;;
73699;SDS011;62005;50.082;8.988;2022-09-20T02:52:35;1.70;;;0.30;;
73699;SDS011;62005;50.082;8.988;2022-09-20T02:55:05;3.28;;;0.50;;
73699;SDS011;62005;50.082;8.988;2022-09-20T02:57:53;4.80;;;0.68;;
73699;SDS011;62005;50.082;8.988;2022-09-20T03:00:24;1.88;;;0.20;;
73699;SDS011;62005;50.082;8.988;2022-09-20T03:11:12;3.13;;;0.55;;
73699;SDS011;62005;50.082;8.988;2022-09-20T03:14:12;2.40;;;0.70;;
73699;SDS011;62005;50.082;8.988;2022-09-20T03:24:55;1.77;;;0.40;;
73699;SDS011;62005;50.082;8.988;2022-09-20T03:33:10;3.80;;;0.45;;
73699;SDS011;62005;50.082;8.988;2022-09-20T03:35:59;5.63;;;0.55;;
73699;SDS011;62005;50.082;8.988;2022-09-20T03:46:28;3.90;;;0.47;;
73699;SDS011;62005;50.082;8.988;2022-09-20T04:03:19;2.92;;;0.50;;
73699;SDS011;62005;50.082;8.988;2022-09-20T04:19:25;3.83;;;0.63;;
73699;SDS011;62005;50.082;8.988;2022-09-20T04:21:58;2.55;;;0.60;;
73699;SDS011;62005;50.082;8.988;2022-09-20T04:24:37;4.57;;;0.95;;
73699;SDS011;62005;50.082;8.988;2022-09-20T04:27:19;5.32;;;0.73;;
73699;SDS011;62005;50.082;8.988;2022-09-20T04:30:02;5.75;;;1.08;;
73699;SDS011;62005;50.082;8.988;2022-09-20T04:32:38;7.22;;;1.25;;
73699;SDS011;62005;50.082;8.988;2022-09-20T04:35:13;4.10;;;0.98;;
73699;SDS011;62005;50.082;8.988;2022-09-20T04:38:00;6.88;;;0.88;;
73699;SDS011;62005;50.082;8.988;2022-09-20T04:43:27;4.80;;;1.00;;
73699;SDS011;62005;50.082;8.988;2022-09-20T05:00:19;4.72;;;1.73;;
73699;SDS011;62005;50.082;8.988;2022-09-20T05:08:47;5.70;;;1.30;;
73699;SDS011;62005;50.082;8.988;2022-09-20T05:25:02;3.35;;;1.05;;
73699;SDS011;62005;50.082;8.988;2022-09-20T05:27:38;7.55;;;1.20;;
73699;SDS011;62005;50.082;8.988;2022-09-20T05:30:20;6.88;;;1.63;;
73699;SDS011;62005;50.082;8.988;2022-09-20T05:35:46;5.97;;;1.02;;
73699;SDS011;62005;50.082;8.988;2022-09-20T05:44:52;4.03;;;0.90;;
73699;SDS011;62005;50.082;8.988;2022-09-20T06:01:46;5.07;;;1.13;;
73699;SDS011;62005;50.082;8.988;2022-09-20T06:23:59;5.25;;;1.70;;
73699;SDS011;62005;50.082;8.988;2022-09-20T06:26:26;5.65;;;1.60;;
73699;SDS011;62005;50.082;8.988;2022-09-20T06:29:02;6.07;;;1.65;;
73699;SDS011;62005;50.082;8.988;2022-09-20T06:31:31;8.98;;;1.73;;
73699;SDS011;62005;50.082;8.988;2022-09-20T06:34:08;5.57;;;1.65;;
73699;SDS011;62005;50.082;8.988;2022-09-20T06:36:38;3.67;;;1.65;;
73699;SDS011;62005;50.082;8.988;2022-09-20T06:39:33;4.35;;;1.33;;
73699;SDS011;62005;50.082;8.988;2022-09-20T06:42:50;7.88;;;1.73;;
73699;SDS011;62005;50.082;8.988;2022-09-20T06:45:17;5.60;;;2.10;;
73699;SDS011;62005;50.082;8.988;2022-09-20T06:47:43;9.73;;;1.52;;
73699;SDS011;62005;50.082;8.988;2022-09-20T06:50:17;5.07;;;1.65;;
73699;SDS011;62005;50.082;8.988;2022-09-20T06:52:43;5.72;;;1.63;;
73699;SDS011;62005;50.082;8.988;2022-09-20T06:57:47;10.23;;;2.03;;
73699;SDS011;62005;50.082;8.988;2022-09-20T07:00:13;4.15;;;1.60;;
73699;SDS011;62005;50.082;8.988;2022-09-20T07:02:40;9.40;;;2.15;;
73699;SDS011;62005;50.082;8.988;2022-09-20T07:05:12;11.30;;;1.63;;
73699;SDS011;62005;50.082;8.988;2022-09-20T07:07:41;6.80;;;2.22;;
73699;SDS011;62005;50.082;8.988;2022-09-20T07:10:14;7.85;;;1.92;;
73699;SDS011;62005;50.082;8.988;2022-09-20T07:18:45;9.63;;;2.00;;
73699;SDS011;62005;50.082;8.988;2022-09-20T07:21:48;9.15;;;2.50;;
73699;SDS011;62005;50.082;8.988;2022-09-20T07:24:14;6.13;;;2.22;;
73699;SDS011;62005;50.082;8.988;2022-09-20T07:26:52;11.07;;;2.50;;
73699;SDS011;62005;50.082;8.988;2022-09-20T07:29:22;8.85;;;2.78;;
73699;SDS011;62005;50.082;8.988;2022-09-20T07:34:14;14.68;;;2.42;;
73699;SDS011;62005;50.082;8.988;2022-09-20T07:36:45;6.25;;;2.38;;
73699;SDS011;62005;50.082;8.988;2022-09-20T07:39:15;9.43;;;2.25;;
73699;SDS011;62005;50.082;8.988;2022-09-20T07:41:42;7.68;;;2.55;;
73699;SDS011;62005;50.082;8.988;2022-09-20T07:44:12;6.95;;;2.47;;
73699;SDS011;62005;50.082;8.988;2022-09-20T07:46:52;7.38;;;2.88;;
73699;SDS011;62005;50.082;8.988;2022-09-20T07:49:20;7.22;;;2.65;;
73699;SDS011;62005;50.082;8.988;2022-09-20T07:51:47;7.05;;;1.95;;
73699;SDS011;62005;50.082;8.988;2022-09-20T07:56:39;8.98;;;2.42;;
73699;SDS011;62005;50.082;8.988;2022-09-20T07:59:06;7.35;;;2.38;;
73699;SDS011;62005;50.082;8.988;2022-09-20T08:01:36;7.95;;;2.90;;
73699;SDS011;62005;50.082;8.988;2022-09-20T08:04:06;10.77;;;3.35;;
73699;SDS011;62005;50.082;8.988;2022-09-20T08:09:02;10.27;;;2.92;;
73699;SDS011;62005;50.082;8.988;2022-09-20T08:11:34;8.10;;;2.55;;
73699;SDS011;62005;50.082;8.988;2022-09-20T08:14:02;7.57;;;2.38;;
73699;SDS011;62005;50.082;8.988;2022-09-20T08:16:28;9.32;;;2.70;;
73699;SDS011;62005;50.082;8.988;2022-09-20T08:18:56;6.28;;;2.60;;
73699;SDS011;62005;50.082;8.988;2022-09-20T08:21:24;8.50;;;2.60;;
73699;SDS011;62005;50.082;8.988;2022-09-20T08:23:54;7.53;;;2.47;;
73699;SDS011;62005;50.082;8.988;2022-09-20T08:26:21;5.30;;;2.47;;
73699;SDS011;62005;50.082;8.988;2022-09-20T08:28:52;5.10;;;2.40;;
73699;SDS011;62005;50.082;8.988;2022-09-20T08:31:21;10.95;;;2.58;;
73699;SDS011;62005;50.082;8.988;2022-09-20T08:34:02;9.15;;;2.35;;
73699;SDS011;62005;50.082;8.988;2022-09-20T08:36:32;7.63;;;2.28;;
73699;SDS011;62005;50.082;8.988;2022-09-20T08:39:02;9.52;;;2.53;;
73699;SDS011;62005;50.082;8.988;2022-09-20T08:41:36;17.35;;;2.72;;
73699;SDS011;62005;50.082;8.988;2022-09-20T08:47:18;6.60;;;2.00;;
73699;SDS011;62005;50.082;8.988;2022-09-20T08:49:47;6.13;;;2.00;;
73699;SDS011;62005;50.082;8.988;2022-09-20T08:52:16;5.88;;;1.67;;
73699;SDS011;62005;50.082;8.988;2022-09-20T08:54:47;9.13;;;1.33;;
73699;SDS011;62005;50.082;8.988;2022-09-20T08:57:14;3.78;;;1.40;;
73699;SDS011;62005;50.082;8.988;2022-09-20T08:59:45;8.07;;;1.52;;
73699;SDS011;62005;50.082;8.988;2022-09-20T09:02:14;5.43;;;1.20;;
73699;SDS011;62005;50.082;8.988;2022-09-20T09:04:42;7.00;;;2.20;;
73699;SDS011;62005;50.082;8.988;2022-09-20T09:07:11;5.60;;;1.23;;
73699;SDS011;62005;50.082;8.988;2022-09-20T09:09:43;4.82;;;1.40;;
73699;SDS011;62005;50.082;8.988;2022-09-20T09:12:28;4.18;;;0.93;;
73699;SDS011;62005;50.082;8.988;2022-09-20T09:17:28;13.85;;;2.00;;
73699;SDS011;62005;50.082;8.988;2022-09-20T09:19:55;4.90;;;1.00;;
73699;SDS011;62005;50.082;8.988;2022-09-20T09:22:24;4.90;;;0.90;;
73699;SDS011;62005;50.082;8.988;2022-09-20T09:30:20;6.35;;;1.23;;
73699;SDS011;62005;50.082;8.988;2022-09-20T09:36:08;9.00;;;0.90;;
73699;SDS011;62005;50.082;8.988;2022-09-20T09:39:21;7.95;;;1.10;;
73699;SDS011;62005;50.082;8.988;2022-09-20T09:41:49;4.82;;;0.93;;
73699;SDS011;62005;50.082;8.988;2022-09-20T09:44:19;8.43;;;1.13;;
73699;SDS011;62005;50.082;8.988;2022-09-20T09:46:49;3.35;;;0.82;;
73699;SDS011;62005;50.082;8.988;2022-09-20T09:54:49;6.30;;;0.90;;
73699;SDS011;62005;50.082;8.988;2022-09-20T10:00:19;4.40;;;0.30;;
73699;SDS011;62005;50.082;8.988;2022-09-20T10:19:55;4.88;;;0.47;;
73699;SDS011;62005;50.082;8.988;2022-09-20T10:22:57;7.00;;;0.60;;
73699;SDS011;62005;50.082;8.988;2022-09-20T10:50:58;3.40;;;0.35;;
73699;SDS011;62005;50.082;8.988;2022-09-20T10:56:29;6.18;;;0.60;;
73699;SDS011;62005;50.082;8.988;2022-09-20T11:16:52;2.75;;;0.40;;
73699;SDS011;62005;50.082;8.988;2022-09-20T11:22:15;5.38;;;0.52;;
73699;SDS011;62005;50.082;8.988;2022-09-20T11:24:48;4.18;;;0.85;;
73699;SDS011;62005;50.082;8.988;2022-09-20T11:33:22;3.60;;;0.35;;
73699;SDS011;62005;50.082;8.988;2022-09-20T11:35:54;1.92;;;0.38;;
73699;SDS011;62005;50.082;8.988;2022-09-20T11:41:15;6.93;;;0.47;;
73699;SDS011;62005;50.082;8.988;2022-09-20T11:43:46;4.30;;;0.30;;
73699;SDS011;62005;50.082;8.988;2022-09-20T11:46:48;3.65;;;0.40;;
73699;SDS011;62005;50.082;8.988;2022-09-20T11:51:54;3.53;;;0.22;;
73699;SDS011;62005;50.082;8.988;2022-09-20T11:57:57;2.17;;;0.32;;
73699;SDS011;62005;50.082;8.988;2022-09-20T12:07:06;3.97;;;0.22;;
73699;SDS011;62005;50.082;8.988;2022-09-20T12:15:00;6.97;;;0.32;;
73699;SDS011;62005;50.082;8.988;2022-09-20T12:28:41;0.60;;;0.00;;
73699;SDS011;62005;50.082;8.988;2022-09-20T12:34:03;0.93;;;0.00;;
73699;SDS011;62005;50.082;8.988;2022-09-20T12:44:37;1.80;;;0.10;;
73699;SDS011;62005;50.082;8.988;2022-09-20T12:55:37;2.53;;;0.22;;
73699;SDS011;62005;50.082;8.988;2022-09-20T13:00:44;2.47;;;0.20;;
73699;SDS011;62005;50.082;8.988;2022-09-20T13:05:46;3.60;;;0.30;;
73699;SDS011;62005;50.082;8.988;2022-09-20T13:10:43;2.35;;;0.10;;
73699;SDS011;62005;50.082;8.988;2022-09-20T13:16:30;1.58;;;0.00;;
73699;SDS011;62005;50.082;8.988;2022-09-20T13:21:39;1.13;;;0.20;;
73699;SDS011;62005;50.082;8.988;2022-09-20T13:24:14;4.78;;;0.30;;
73699;SDS011;62005;50.082;8.988;2022-09-20T13:26:44;2.35;;;0.52;;
73699;SDS011;62005;50.082;8.988;2022-09-20T13:29:21;1.33;;;0.00;;
73699;SDS011;62005;50.082;8.988;2022-09-20T13:36:44;1.80;;;0.13;;
73699;SDS011;62005;50.082;8.988;2022-09-20T13:42:14;5.30;;;0.20;;
73699;SDS011;62005;50.082;8.988;2022-09-20T13:44:44;3.10;;;0.10;;
73699;SDS011;62005;50.082;8.988;2022-09-20T13:54:49;1.73;;;0.10;;
73699;SDS011;62005;50.082;8.988;2022-09-20T13:57:17;2.15;;;0.20;;
73699;SDS011;62005;50.082;8.988;2022-09-20T13:59:50;1.27;;;0.13;;
73699;SDS011;62005;50.082;8.988;2022-09-20T14:04:46;1.02;;;0.10;;
73699;SDS011;62005;50.082;8.988;2022-09-20T14:07:14;1.25;;;0.10;;
73699;SDS011;62005;50.082;8.988;2022-09-20T14:09:41;1.40;;;0.10;;
73699;SDS011;62005;50.082;8.988;2022-09-20T14:12:09;1.13;;;0.10;;
73699;SDS011;62005;50.082;8.988;2022-09-20T14:14:36;3.83;;;0.32;;
73699;SDS011;62005;50.082;8.988;2022-09-20T14:17:06;2.05;;;0.30;;
73699;SDS011;62005;50.082;8.988;2022-09-20T14:19:35;2.20;;;0.30;;
73699;SDS011;62005;50.082;8.988;2022-09-20T14:22:05;4.57;;;0.30;;
73699;SDS011;62005;50.082;8.988;2022-09-20T14:27:18;3.75;;;0.40;;
73699;SDS011;62005;50.082;8.988;2022-09-20T14:29:46;1.48;;;0.25;;
73699;SDS011;62005;50.082;8.988;2022-09-20T14:37:25;4.70;;;0.20;;
73699;SDS011;62005;50.082;8.988;2022-09-20T14:40:14;3.17;;;0.22;;
73699;SDS011;62005;50.082;8.988;2022-09-20T14:42:44;3.90;;;0.50;;
73699;SDS011;62005;50.082;8.988;2022-09-20T14:50:31;3.15;;;0.15;;
73699;SDS011;62005;50.082;8.988;2022-09-20T14:53:02;2.33;;;0.20;;
73699;SDS011;62005;50.082;8.988;2022-09-20T14:55:34;1.75;;;0.20;;
73699;SDS011;62005;50.082;8.988;2022-09-20T14:58:10;2.53;;;0.22;;
73699;SDS011;62005;50.082;8.988;2022-09-20T15:03:42;6.03;;;0.60;;
73699;SDS011;62005;50.082;8.988;2022-09-20T15:06:09;1.75;;;0.20;;
73699;SDS011;62005;50.082;8.988;2022-09-20T15:11:02;3.05;;;0.55;;
73699;SDS011;62005;50.082;8.988;2022-09-20T15:13:29;4.78;;;0.20;;
73699;SDS011;62005;50.082;8.988;2022-09-20T15:15:59;1.67;;;0.13;;
73699;SDS011;62005;50.082;8.988;2022-09-20T15:18:26;2.40;;;0.22;;
73699;SDS011;62005;50.082;8.988;2022-09-20T15:20:54;1.38;;;0.30;;
73699;SDS011;62005;50.082;8.988;2022-09-20T15:23:20;2.63;;;0.30;;
73699;SDS011;62005;50.082;8.988;2022-09-20T15:25:48;3.45;;;0.40;;
73699;SDS011;62005;50.082;8.988;2022-09-20T15:28:16;3.08;;;1.00;;
73699;SDS011;62005;50.082;8.988;2022-09-20T15:30:42;2.15;;;0.20;;
73699;SDS011;62005;50.082;8.988;2022-09-20T15:33:09;2.85;;;0.40;;
73699;SDS011;62005;50.082;8.988;2022-09-20T15:35:35;3.80;;;0.28;;
73699;SDS011;62005;50.082;8.988;2022-09-20T15:40:29;1.73;;;0.30;;
73699;SDS011;62005;50.082;8.988;2022-09-20T15:42:56;3.20;;;0.30;;
73699;SDS011;62005;50.082;8.988;2022-09-20T15:45:23;2.13;;;0.45;;
73699;SDS011;62005;50.082;8.988;2022-09-20T15:47:50;15.68;;;5.03;;
73699;SDS011;62005;50.082;8.988;2022-09-20T15:50:19;8.20;;;3.45;;
73699;SDS011;62005;50.082;8.988;2022-09-20T15:52:49;6.57;;;1.27;;
73699;SDS011;62005;50.082;8.988;2022-09-20T15:55:18;12.07;;;0.68;;
73699;SDS011;62005;50.082;8.988;2022-09-20T15:57:44;2.47;;;0.32;;
73699;SDS011;62005;50.082;8.988;2022-09-20T16:00:11;1.95;;;0.40;;
73699;SDS011;62005;50.082;8.988;2022-09-20T16:02:37;2.92;;;0.40;;
73699;SDS011;62005;50.082;8.988;2022-09-20T16:05:03;4.38;;;0.32;;
73699;SDS011;62005;50.082;8.988;2022-09-20T16:07:30;2.42;;;0.30;;
73699;SDS011;62005;50.082;8.988;2022-09-20T16:09:55;2.95;;;0.63;;
73699;SDS011;62005;50.082;8.988;2022-09-20T16:12:22;2.70;;;0.47;;
73699;SDS011;62005;50.082;8.988;2022-09-20T16:14:48;3.03;;;0.60;;
73699;SDS011;62005;50.082;8.988;2022-09-20T16:17:14;2.78;;;0.63;;
73699;SDS011;62005;50.082;8.988;2022-09-20T16:19:40;2.20;;;0.60;;
73699;SDS011;62005;50.082;8.988;2022-09-20T16:22:06;3.35;;;0.50;;
73699;SDS011;62005;50.082;8.988;2022-09-20T16:24:33;1.67;;;0.10;;
73699;SDS011;62005;50.082;8.988;2022-09-20T16:27:01;2.65;;;0.20;;
73699;SDS011;62005;50.082;8.988;2022-09-20T16:29:28;0.88;;;0.20;;
73699;SDS011;62005;50.082;8.988;2022-09-20T16:31:55;1.67;;;0.22;;
73699;SDS011;62005;50.082;8.988;2022-09-20T16:36:54;1.35;;;0.10;;
73699;SDS011;62005;50.082;8.988;2022-09-20T16:39:23;0.70;;;0.20;;
73699;SDS011;62005;50.082;8.988;2022-09-20T16:44:39;1.25;;;0.20;;
73699;SDS011;62005;50.082;8.988;2022-09-20T16:47:07;1.35;;;0.10;;
73699;SDS011;62005;50.082;8.988;2022-09-20T16:49:38;3.00;;;0.50;;
73699;SDS011;62005;50.082;8.988;2022-09-20T16:52:06;2.35;;;0.20;;
73699;SDS011;62005;50.082;8.988;2022-09-20T16:54:34;5.70;;;0.20;;
73699;SDS011;62005;50.082;8.988;2022-09-20T16:56:59;2.78;;;0.28;;
73699;SDS011;62005;50.082;8.988;2022-09-20T16:59:25;3.83;;;0.30;;
73699;SDS011;62005;50.082;8.988;2022-09-20T17:01:51;0.80;;;0.20;;
73699;SDS011;62005;50.082;8.988;2022-09-20T17:04:17;1.92;;;0.40;;
73699;SDS011;62005;50.082;8.988;2022-09-20T17:06:45;1.58;;;0.52;;
73699;SDS011;62005;50.082;8.988;2022-09-20T17:09:13;4.10;;;0.28;;
73699;SDS011;62005;50.082;8.988;2022-09-20T17:11:43;2.33;;;0.38;;
73699;SDS011;62005;50.082;8.988;2022-09-20T17:14:11;1.58;;;0.20;;
73699;SDS011;62005;50.082;8.988;2022-09-20T17:16:38;2.08;;;0.60;;
73699;SDS011;62005;50.082;8.988;2022-09-20T17:19:09;1.73;;;0.32;;
73699;SDS011;62005;50.082;8.988;2022-09-20T17:21:43;2.25;;;0.30;;
73699;SDS011;62005;50.082;8.988;2022-09-20T17:24:13;2.65;;;0.20;;
73699;SDS011;62005;50.082;8.988;2022-09-20T17:26:49;12.07;;;0.95;;
73699;SDS011;62005;50.082;8.988;2022-09-20T17:29:25;5.38;;;1.42;;
73699;SDS011;62005;50.082;8.988;2022-09-20T17:31:51;5.30;;;1.55;;
73699;SDS011;62005;50.082;8.988;2022-09-20T17:34:18;1.70;;;0.20;;
73699;SDS011;62005;50.082;8.988;2022-09-20T17:36:46;1.67;;;0.40;;
73699;SDS011;62005;50.082;8.988;2022-09-20T17:39:17;4.55;;;0.68;;
73699;SDS011;62005;50.082;8.988;2022-09-20T17:41:43;1.52;;;0.35;;
73699;SDS011;62005;50.082;8.988;2022-09-20T17:44:11;1.65;;;0.40;;
73699;SDS011;62005;50.082;8.988;2022-09-20T17:46:38;3.15;;;0.95;;
73699;SDS011;62005;50.082;8.988;2022-09-20T17:49:09;4.03;;;0.40;;
73699;SDS011;62005;50.082;8.988;2022-09-20T17:51:37;1.88;;;0.40;;
73699;SDS011;62005;50.082;8.988;2022-09-20T17:54:05;2.83;;;0.43;;
73699;SDS011;62005;50.082;8.988;2022-09-20T17:56:31;3.47;;;0.50;;
73699;SDS011;62005;50.082;8.988;2022-09-20T17:58:58;5.40;;;0.40;;
73699;SDS011;62005;50.082;8.988;2022-09-20T18:01:25;2.22;;;0.60;;
73699;SDS011;62005;50.082;8.988;2022-09-20T18:03:52;6.18;;;1.00;;
73699;SDS011;62005;50.082;8.988;2022-09-20T18:06:30;3.38;;;0.90;;
73699;SDS011;62005;50.082;8.988;2022-09-20T18:08:58;3.03;;;0.52;;
73699;SDS011;62005;50.082;8.988;2022-09-20T18:11:27;3.78;;;0.63;;
73699;SDS011;62005;50.082;8.988;2022-09-20T18:18:50;3.10;;;0.30;;
73699;SDS011;62005;50.082;8.988;2022-09-20T18:21:17;2.78;;;0.60;;
73699;SDS011;62005;50.082;8.988;2022-09-20T18:23:46;1.55;;;0.50;;
73699;SDS011;62005;50.082;8.988;2022-09-20T18:28:54;5.68;;;0.80;;
73699;SDS011;62005;50.082;8.988;2022-09-20T18:32:00;2.58;;;0.68;;
73699;SDS011;62005;50.082;8.988;2022-09-20T18:34:27;4.35;;;0.82;;
73699;SDS011;62005;50.082;8.988;2022-09-20T18:37:02;4.10;;;0.98;;
73699;SDS011;62005;50.082;8.988;2022-09-20T18:39:31;7.65;;;2.67;;
73699;SDS011;62005;50.082;8.988;2022-09-20T18:42:01;4.05;;;1.00;;
73699;SDS011;62005;50.082;8.988;2022-09-20T18:44:30;5.82;;;1.15;;
73699;SDS011;62005;50.082;8.988;2022-09-20T18:46:57;5.45;;;0.85;;
73699;SDS011;62005;50.082;8.988;2022-09-20T18:49:27;4.60;;;1.00;;
73699;SDS011;62005;50.082;8.988;2022-09-20T18:51:54;3.45;;;0.77;;
73699;SDS011;62005;50.082;8.988;2022-09-20T18:54:21;4.25;;;0.88;;
73699;SDS011;62005;50.082;8.988;2022-09-20T18:56:48;2.65;;;0.77;;
73699;SDS011;62005;50.082;8.988;2022-09-20T18:59:17;3.97;;;1.02;;
73699;SDS011;62005;50.082;8.988;2022-09-20T19:04:23;3.78;;;1.20;;
73699;SDS011;62005;50.082;8.988;2022-09-20T19:07:13;4.80;;;1.02;;
73699;SDS011;62005;50.082;8.988;2022-09-20T19:15:22;2.17;;;0.98;;
73699;SDS011;62005;50.082;8.988;2022-09-20T19:26:36;3.05;;;0.85;;
73699;SDS011;62005;50.082;8.988;2022-09-20T19:29:03;5.72;;;0.70;;
73699;SDS011;62005;50.082;8.988;2022-09-20T19:31:41;3.20;;;0.95;;
73699;SDS011;62005;50.082;8.988;2022-09-20T19:42:01;4.30;;;0.88;;
73699;SDS011;62005;50.082;8.988;2022-09-20T19:50:13;3.45;;;0.90;;
73699;SDS011;62005;50.082;8.988;2022-09-20T19:52:48;3.85;;;1.02;;
73699;SDS011;62005;50.082;8.988;2022-09-20T19:55:14;6.07;;;0.90;;
73699;SDS011;62005;50.082;8.988;2022-09-20T19:57:43;5.22;;;0.90;;
73699;SDS011;62005;50.082;8.988;2022-09-20T20:00:14;4.82;;;1.38;;
73699;SDS011;62005;50.082;8.988;2022-09-20T20:02:42;4.18;;;0.77;;
73699;SDS011;62005;50.082;8.988;2022-09-20T20:05:09;4.07;;;0.95;;
73699;SDS011;62005;50.082;8.988;2022-09-20T20:10:31;3.85;;;0.75;;
73699;SDS011;62005;50.082;8.988;2022-09-20T20:15:42;3.70;;;0.60;;
73699;SDS011;62005;50.082;8.988;2022-09-20T20:20:55;3.45;;;0.80;;
73699;SDS011;62005;50.082;8.988;2022-09-20T20:26:21;4.45;;;1.15;;
73699;SDS011;62005;50.082;8.988;2022-09-20T20:28:50;2.08;;;0.52;;
73699;SDS011;62005;50.082;8.988;2022-09-20T20:31:17;4.60;;;0.90;;
73699;SDS011;62005;50.082;8.988;2022-09-20T20:33:44;2.72;;;0.70;;
73699;SDS011;62005;50.082;8.988;2022-09-20T20:36:10;5.07;;;1.05;;
73699;SDS011;62005;50.082;8.988;2022-09-20T20:38:37;4.60;;;1.10;;
73699;SDS011;62005;50.082;8.988;2022-09-20T20:41:08;2.28;;;0.63;;
73699;SDS011;62005;50.082;8.988;2022-09-20T20:43:39;3.85;;;0.73;;
73699;SDS011;62005;50.082;8.988;2022-09-20T20:46:07;3.97;;;0.95;;
73699;SDS011;62005;50.082;8.988;2022-09-20T20:48:34;1.58;;;0.40;;
73699;SDS011;62005;50.082;8.988;2022-09-20T20:51:02;3.47;;;1.10;;
73699;SDS011;62005;50.082;8.988;2022-09-20T20:53:31;5.43;;;1.45;;
73699;SDS011;62005;50.082;8.988;2022-09-20T20:56:02;3.10;;;0.60;;
73699;SDS011;62005;50.082;8.988;2022-09-20T20:58:33;2.92;;;0.60;;
73699;SDS011;62005;50.082;8.988;2022-09-20T21:03:30;2.35;;;0.68;;
73699;SDS011;62005;50.082;8.988;2022-09-20T21:05:56;2.05;;;0.60;;
73699;SDS011;62005;50.082;8.988;2022-09-20T21:08:22;2.20;;;0.70;;
73699;SDS011;62005;50.082;8.988;2022-09-20T21:10:47;3.38;;;0.52;;
73699;SDS011;62005;50.082;8.988;2022-09-20T21:13:13;4.40;;;0.85;;
73699;SDS011;62005;50.082;8.988;2022-09-20T21:15:38;1.30;;;0.40;;
73699;SDS011;62005;50.082;8.988;2022-09-20T21:18:05;1.90;;;0.40;;
73699;SDS011;62005;50.082;8.988;2022-09-20T21:20:30;1.75;;;0.43;;
73699;SDS011;62005;50.082;8.988;2022-09-20T21:22:56;4.78;;;0.88;;
73699;SDS011;62005;50.082;8.988;2022-09-20T21:25:22;1.55;;;0.68;;
73699;SDS011;62005;50.082;8.988;2022-09-20T21:27:47;3.88;;;0.60;;
73699;SDS011;62005;50.082;8.988;2022-09-20T21:30:13;1.52;;;0.50;;
73699;SDS011;62005;50.082;8.988;2022-09-20T21:32:39;1.73;;;0.70;;
73699;SDS011;62005;50.082;8.988;2022-09-20T21:35:04;2.47;;;0.95;;
73699;SDS011;62005;50.082;8.988;2022-09-20T21:37:30;1.52;;;0.52;;
73699;SDS011;62005;50.082;8.988;2022-09-20T21:39:56;2.85;;;0.70;;
73699;SDS011;62005;50.082;8.988;2022-09-20T21:42:21;3.85;;;0.75;;
73699;SDS011;62005;50.082;8.988;2022-09-20T21:44:47;1.60;;;0.43;;
73699;SDS011;62005;50.082;8.988;2022-09-20T21:47:12;2.80;;;0.75;;
73699;SDS011;62005;50.082;8.988;2022-09-20T21:49:45;3.35;;;0.68;;
73699;SDS011;62005;50.082;8.988;2022-09-20T21:52:11;4.75;;;0.75;;
73699;SDS011;62005;50.082;8.988;2022-09-20T21:54:38;2.17;;;0.80;;
73699;SDS011;62005;50.082;8.988;2022-09-20T21:57:04;3.03;;;0.70;;
73699;SDS011;62005;50.082;8.988;2022-09-20T21:59:29;6.18;;;1.20;;
73699;SDS011;62005;50.082;8.988;2022-09-20T22:01:55;1.63;;;0.50;;
73699;SDS011;62005;50.082;8.988;2022-09-20T22:04:22;1.98;;;0.70;;
73699;SDS011;62005;50.082;8.988;2022-09-20T22:06:48;2.35;;;0.80;;
73699;SDS011;62005;50.082;8.988;2022-09-20T22:09:14;3.80;;;0.73;;
73699;SDS011;62005;50.082;8.988;2022-09-20T22:11:43;3.80;;;0.80;;
73699;SDS011;62005;50.082;8.988;2022-09-20T22:14:15;6.22;;;1.00;;
73699;SDS011;62005;50.082;8.988;2022-09-20T22:16:44;3.65;;;1.35;;
73699;SDS011;62005;50.082;8.988;2022-09-20T22:19:11;2.13;;;0.60;;
73699;SDS011;62005;50.082;8.988;2022-09-20T22:21:39;3.47;;;0.57;;
73699;SDS011;62005;50.082;8.988;2022-09-20T22:24:07;3.92;;;0.63;;
73699;SDS011;62005;50.082;8.988;2022-09-20T22:26:38;2.90;;;0.60;;
73699;SDS011;62005;50.082;8.988;2022-09-20T22:29:06;3.70;;;0.80;;
73699;SDS011;62005;50.082;8.988;2022-09-20T22:31:33;3.35;;;1.00;;
73699;SDS011;62005;50.082;8.988;2022-09-20T22:34:01;3.90;;;0.50;;
73699;SDS011;62005;50.082;8.988;2022-09-20T22:36:33;3.35;;;0.77;;
73699;SDS011;62005;50.082;8.988;2022-09-20T22:39:01;1.88;;;0.88;;
73699;SDS011;62005;50.082;8.988;2022-09-20T22:41:28;1.80;;;0.43;;
73699;SDS011;62005;50.082;8.988;2022-09-20T22:43:53;3.00;;;1.00;;
73699;SDS011;62005;50.082;8.988;2022-09-20T22:46:23;1.77;;;0.73;;
73699;SDS011;62005;50.082;8.988;2022-09-20T22:48:51;3.13;;;1.10;;
73699;SDS011;62005;50.082;8.988;2022-09-20T22:51:17;2.40;;;0.90;;
73699;SDS011;62005;50.082;8.988;2022-09-20T22:53:44;3.83;;;1.10;;
73699;SDS011;62005;50.082;8.988;2022-09-20T22:56:14;1.38;;;0.73;;
73699;SDS011;62005;50.082;8.988;2022-09-20T22:58:45;1.83;;;0.50;;